Time,TemperatureF,DewpointF,PressureIn,WindDirection,WindDirectionDegrees,WindSpeedMPH,WindSpeedGustMPH,Humidity,HourlyPrecipIn,Conditions,Clouds,dailyrainin,SoftwareType,DateUTC
2013-11-17 00:04:00,38.3,34.5,30.27,SE,132,0.0,0.0,86,0.00,,,0.00,Wunderground v.1.15,2013-11-17 05:04:00,
2013-11-17 00:09:00,38.1,34.6,30.27,SE,132,0.0,0.0,87,0.00,,,0.00,Wunderground v.1.15,2013-11-17 05:09:00,
2013-11-17 00:14:00,38.2,35.0,30.26,SE,132,0.0,0.0,88,0.00,,,0.00,Wunderground v.1.15,2013-11-17 05:14:00,
2013-11-17 00:19:00,38.1,34.6,30.26,SE,132,0.0,0.0,87,0.00,,,0.00,Wunderground v.1.15,2013-11-17 05:19:00,
2013-11-17 00:24:00,38.2,35.2,30.26,SE,132,0.0,0.0,89,0.00,,,0.00,Wunderground v.1.15,2013-11-17 05:24:00,
2013-11-17 00:29:00,38.3,35.3,30.26,SE,132,0.0,0.0,89,0.00,,,0.00,Wunderground v.1.15,2013-11-17 05:29:00,
2013-11-17 00:34:00,38.4,35.2,30.25,SE,132,0.0,0.0,88,0.00,,,0.00,Wunderground v.1.15,2013-11-17 05:34:00,
2013-11-17 00:39:00,38.3,35.1,30.26,SE,132,0.0,0.0,88,0.00,,,0.00,Wunderground v.1.15,2013-11-17 05:39:00,
2013-11-17 00:44:00,38.4,35.4,30.26,NW,326,0.0,0.0,89,0.00,,,0.00,Wunderground v.1.15,2013-11-17 05:44:00,
2013-11-17 00:49:00,38.3,35.1,30.25,NW,326,0.0,0.0,88,0.00,,,0.00,Wunderground v.1.15,2013-11-17 05:49:00,
2013-11-17 00:54:00,38.2,35.0,30.25,NW,326,0.0,0.0,88,0.00,,,0.00,Wunderground v.1.15,2013-11-17 05:54:00,
2013-11-17 00:59:00,38.2,35.2,30.25,NW,326,0.0,0.0,89,0.00,,,0.00,Wunderground v.1.15,2013-11-17 05:59:00,
2013-11-17 01:05:00,38.2,35.2,30.25,NW,326,0.0,0.0,89,0.00,,,0.00,Wunderground v.1.15,2013-11-17 06:05:00,
2013-11-17 01:10:00,38.1,35.1,30.25,NW,326,0.0,0.0,89,0.00,,,0.00,Wunderground v.1.15,2013-11-17 06:10:00,
2013-11-17 01:15:00,38.0,35.0,30.25,NW,326,0.0,0.0,89,0.00,,,0.00,Wunderground v.1.15,2013-11-17 06:15:00,
2013-11-17 01:20:00,38.0,35.3,30.25,NW,326,0.0,0.0,90,0.00,,,0.00,Wunderground v.1.15,2013-11-17 06:20:00,
2013-11-17 01:25:00,38.1,35.7,30.25,NNW,327,0.0,0.0,91,0.00,,,0.00,Wunderground v.1.15,2013-11-17 06:25:00,
2013-11-17 01:30:00,38.2,35.8,30.25,NNW,327,0.0,0.0,91,0.00,,,0.00,Wunderground v.1.15,2013-11-17 06:30:00,
2013-11-17 01:35:00,38.3,35.9,30.25,NNW,327,0.0,0.0,91,0.00,,,0.00,Wunderground v.1.15,2013-11-17 06:35:00,
2013-11-17 01:40:00,38.6,36.5,30.25,NNW,327,0.0,0.0,92,0.00,,,0.00,Wunderground v.1.15,2013-11-17 06:40:00,
2013-11-17 01:45:00,38.7,36.6,30.25,NNW,327,0.0,0.0,92,0.00,,,0.00,Wunderground v.1.15,2013-11-17 06:45:00,
2013-11-17 01:50:00,38.8,36.7,30.25,NNW,327,0.0,0.0,92,0.00,,,0.00,Wunderground v.1.15,2013-11-17 06:50:00,
2013-11-17 01:55:00,38.9,36.8,30.24,ESE,115,0.0,0.0,92,0.00,,,0.00,Wunderground v.1.15,2013-11-17 06:55:00,
2013-11-17 02:00:00,38.8,36.4,30.24,ESE,115,0.0,0.0,91,0.00,,,0.00,Wunderground v.1.15,2013-11-17 07:00:00,
2013-11-17 02:05:00,39.0,36.9,30.24,ESE,115,0.0,0.0,92,0.00,,,0.00,Wunderground v.1.15,2013-11-17 07:05:00,
2013-11-17 02:10:00,39.2,37.1,30.24,ESE,115,0.0,0.0,92,0.00,,,0.00,Wunderground v.1.15,2013-11-17 07:10:00,
2013-11-17 02:15:00,39.3,37.4,30.24,ESE,115,0.0,0.0,93,0.00,,,0.00,Wunderground v.1.15,2013-11-17 07:15:00,
2013-11-17 02:20:00,39.5,37.6,30.23,ESE,115,0.0,0.0,93,0.00,,,0.00,Wunderground v.1.15,2013-11-17 07:20:00,
2013-11-17 02:25:00,39.6,37.7,30.24,ESE,115,0.0,0.0,93,0.00,,,0.00,Wunderground v.1.15,2013-11-17 07:25:00,
2013-11-17 02:30:00,39.7,37.8,30.24,ESE,115,0.0,0.0,93,0.00,,,0.00,Wunderground v.1.15,2013-11-17 07:30:00,
2013-11-17 02:35:00,39.7,37.8,30.23,ESE,115,0.0,0.0,93,0.00,,,0.00,Wunderground v.1.15,2013-11-17 07:35:00,
2013-11-17 02:40:00,39.7,37.8,30.23,ESE,115,0.0,0.0,93,0.00,,,0.00,Wunderground v.1.15,2013-11-17 07:40:00,
2013-11-17 02:45:00,39.7,37.8,30.23,ESE,115,0.0,0.0,93,0.00,,,0.00,Wunderground v.1.15,2013-11-17 07:45:00,
2013-11-17 02:50:00,39.7,37.8,30.23,ESE,115,0.0,0.0,93,0.00,,,0.00,Wunderground v.1.15,2013-11-17 07:50:00,
2013-11-17 02:55:00,40.0,38.1,30.23,South,178,0.0,2.0,93,0.00,,,0.00,Wunderground v.1.15,2013-11-17 07:55:00,
2013-11-17 03:00:00,40.4,38.5,30.24,South,178,0.0,0.0,93,0.00,,,0.00,Wunderground v.1.15,2013-11-17 08:00:00,
2013-11-17 03:10:00,40.6,38.7,30.24,South,178,0.0,0.0,93,0.00,,,0.00,Wunderground v.1.15,2013-11-17 08:10:00,
2013-11-17 03:15:00,40.8,39.2,30.24,SSE,160,0.0,0.0,94,0.00,,,0.00,Wunderground v.1.15,2013-11-17 08:15:00,
2013-11-17 03:20:00,40.9,39.3,30.24,SSE,160,0.0,0.0,94,0.00,,,0.00,Wunderground v.1.15,2013-11-17 08:20:00,
2013-11-17 03:25:00,41.4,39.8,30.24,SSE,160,0.0,0.0,94,0.00,,,0.00,Wunderground v.1.15,2013-11-17 08:25:00,
2013-11-17 03:30:00,41.8,40.2,30.24,South,180,0.0,1.0,94,0.00,,,0.00,Wunderground v.1.15,2013-11-17 08:30:00,
2013-11-17 03:35:00,42.3,40.7,30.23,SE,142,2.0,2.0,94,0.00,,,0.00,Wunderground v.1.15,2013-11-17 08:35:00,
2013-11-17 03:40:00,42.4,40.8,30.24,South,180,2.0,2.0,94,0.00,,,0.00,Wunderground v.1.15,2013-11-17 08:40:00,
2013-11-17 03:45:00,42.5,40.9,30.24,South,171,1.0,2.0,94,0.00,,,0.00,Wunderground v.1.15,2013-11-17 08:45:00,
2013-11-17 03:50:00,42.5,40.6,30.23,South,182,1.0,4.0,93,0.00,,,0.00,Wunderground v.1.15,2013-11-17 08:50:00,
2013-11-17 03:55:00,42.5,40.6,30.23,South,173,1.0,4.0,93,0.00,,,0.00,Wunderground v.1.15,2013-11-17 08:55:00,
2013-11-17 04:00:00,42.6,40.7,30.23,ESE,122,1.0,1.0,93,0.00,,,0.00,Wunderground v.1.15,2013-11-17 09:00:00,
2013-11-17 04:05:00,42.6,40.7,30.25,South,174,1.0,1.0,93,0.00,,,0.00,Wunderground v.1.15,2013-11-17 09:05:00,
2013-11-17 04:10:00,42.6,40.7,30.24,South,174,0.0,1.0,93,0.00,,,0.00,Wunderground v.1.15,2013-11-17 09:10:00,
2013-11-17 04:15:00,42.5,40.6,30.24,South,174,0.0,1.0,93,0.00,,,0.00,Wunderground v.1.15,2013-11-17 09:15:00,
2013-11-17 04:20:00,42.2,40.3,30.25,SW,215,0.0,1.0,93,0.00,,,0.00,Wunderground v.1.15,2013-11-17 09:20:00,
2013-11-17 04:25:00,41.9,39.7,30.24,WNW,285,0.0,1.0,92,0.00,,,0.00,Wunderground v.1.15,2013-11-17 09:25:00,
2013-11-17 04:30:00,41.6,39.4,30.23,WNW,285,0.0,0.0,92,0.00,,,0.00,Wunderground v.1.15,2013-11-17 09:30:00,
2013-11-17 04:35:00,41.4,39.3,30.22,WNW,285,0.0,0.0,92,0.00,,,0.00,Wunderground v.1.15,2013-11-17 09:35:00,
2013-11-17 04:40:00,41.3,39.2,30.23,WNW,285,0.0,0.0,92,0.00,,,0.00,Wunderground v.1.15,2013-11-17 09:40:00,
2013-11-17 04:45:00,41.0,38.9,30.22,WNW,285,0.0,0.0,92,0.00,,,0.00,Wunderground v.1.15,2013-11-17 09:45:00,
2013-11-17 04:50:00,40.9,38.8,30.22,WNW,285,0.0,0.0,92,0.00,,,0.00,Wunderground v.1.15,2013-11-17 09:50:00,
2013-11-17 04:55:00,40.6,38.5,30.23,WNW,285,0.0,0.0,92,0.00,,,0.00,Wunderground v.1.15,2013-11-17 09:55:00,
2013-11-17 05:00:00,40.6,38.7,30.23,WNW,285,0.0,1.0,93,0.00,,,0.00,Wunderground v.1.15,2013-11-17 10:00:00,
2013-11-17 05:05:00,40.6,38.7,30.24,WNW,285,0.0,1.0,93,0.00,,,0.00,Wunderground v.1.15,2013-11-17 10:05:00,
2013-11-17 05:10:00,40.7,38.8,30.23,WNW,285,0.0,0.0,93,0.00,,,0.00,Wunderground v.1.15,2013-11-17 10:10:00,
2013-11-17 05:15:00,40.9,39.0,30.22,NNW,340,0.0,0.0,93,0.00,,,0.00,Wunderground v.1.15,2013-11-17 10:15:00,
2013-11-17 05:20:00,41.1,39.5,30.22,NNW,340,0.0,0.0,94,0.00,,,0.00,Wunderground v.1.15,2013-11-17 10:20:00,
2013-11-17 05:30:00,43.1,41.8,30.22,SSW,202,1.0,1.0,95,0.00,,,0.00,Wunderground v.1.15,2013-11-17 10:30:00,
2013-11-17 05:35:00,44.5,43.2,30.23,SSE,157,2.0,2.0,95,0.00,,,0.00,Wunderground v.1.15,2013-11-17 10:35:00,
2013-11-17 05:40:00,44.9,43.8,30.21,ESE,121,2.0,2.0,96,0.00,,,0.00,Wunderground v.1.15,2013-11-17 10:40:00,
2013-11-17 05:45:00,45.1,43.8,30.21,SSE,167,1.0,5.0,95,0.00,,,0.00,Wunderground v.1.15,2013-11-17 10:45:00,
2013-11-17 05:50:00,45.3,44.0,30.21,South,183,1.0,4.0,95,0.00,,,0.00,Wunderground v.1.15,2013-11-17 10:50:00,
2013-11-17 05:55:00,45.5,44.2,30.20,SE,125,2.0,4.0,95,0.00,,,0.00,Wunderground v.1.15,2013-11-17 10:55:00,
2013-11-17 06:00:00,45.6,44.3,30.20,South,176,2.0,2.0,95,0.00,,,0.00,Wunderground v.1.15,2013-11-17 11:00:00,
2013-11-17 06:05:00,45.6,44.3,30.20,South,179,2.0,5.0,95,0.00,,,0.00,Wunderground v.1.15,2013-11-17 11:05:00,
2013-11-17 06:10:00,45.8,44.4,30.20,South,171,2.0,9.0,95,0.00,,,0.00,Wunderground v.1.15,2013-11-17 11:10:00,
2013-11-17 06:15:00,46.0,44.6,30.19,South,180,3.0,9.0,95,0.00,,,0.00,Wunderground v.1.15,2013-11-17 11:15:00,
2013-11-17 06:20:00,46.2,44.8,30.20,South,178,4.0,6.0,95,0.00,,,0.00,Wunderground v.1.15,2013-11-17 11:20:00,
2013-11-17 06:25:00,46.3,44.9,30.20,South,173,3.0,6.0,95,0.00,,,0.00,Wunderground v.1.15,2013-11-17 11:25:00,
2013-11-17 06:30:00,46.4,45.0,30.20,SSE,158,3.0,4.0,95,0.00,,,0.00,Wunderground v.1.15,2013-11-17 11:30:00,
2013-11-17 06:35:00,46.5,45.1,30.20,SSE,163,4.0,6.0,95,0.00,,,0.00,Wunderground v.1.15,2013-11-17 11:35:00,
2013-11-17 06:40:00,46.6,45.2,30.20,South,180,4.0,8.0,95,0.00,,,0.00,Wunderground v.1.15,2013-11-17 11:40:00,
2013-11-17 06:45:00,46.6,45.2,30.20,SSE,168,4.0,8.0,95,0.00,,,0.00,Wunderground v.1.15,2013-11-17 11:45:00,
2013-11-17 06:50:00,46.7,45.3,30.20,ESE,115,4.0,6.0,95,0.00,,,0.00,Wunderground v.1.15,2013-11-17 11:50:00,
2013-11-17 06:55:00,46.7,45.1,30.21,South,171,4.0,6.0,94,0.00,,,0.00,Wunderground v.1.15,2013-11-17 11:55:00,
2013-11-17 07:00:00,46.8,45.2,30.21,South,180,3.0,5.0,94,0.00,,,0.00,Wunderground v.1.15,2013-11-17 12:00:00,
2013-11-17 07:05:00,46.8,45.4,30.21,SSW,194,3.0,7.0,95,0.00,,,0.00,Wunderground v.1.15,2013-11-17 12:05:00,
2013-11-17 07:10:00,46.9,45.5,30.21,South,171,4.0,4.0,95,0.00,,,0.00,Wunderground v.1.15,2013-11-17 12:10:00,
2013-11-17 07:15:00,46.9,45.5,30.21,South,172,3.0,9.0,95,0.00,,,0.00,Wunderground v.1.15,2013-11-17 12:15:00,
2013-11-17 07:20:00,46.9,45.3,30.20,SE,143,2.0,2.0,94,0.00,,,0.00,Wunderground v.1.15,2013-11-17 12:20:00,
2013-11-17 07:25:00,47.0,45.4,30.20,SSE,165,2.0,4.0,94,0.00,,,0.00,Wunderground v.1.15,2013-11-17 12:25:00,
2013-11-17 07:30:00,47.1,45.5,30.20,ESE,113,2.0,2.0,94,0.00,,,0.00,Wunderground v.1.15,2013-11-17 12:30:00,
2013-11-17 07:35:00,47.2,45.6,30.19,SE,129,1.0,4.0,94,0.00,,,0.00,Wunderground v.1.15,2013-11-17 12:35:00,
2013-11-17 07:45:00,47.5,45.9,30.19,SSE,153,3.0,4.0,94,0.00,,,0.00,Wunderground v.1.15,2013-11-17 12:45:00,
2013-11-17 07:50:00,47.8,46.2,30.19,SSE,150,4.0,4.0,94,0.00,,,0.00,Wunderground v.1.15,2013-11-17 12:50:00,
2013-11-17 07:55:00,48.0,46.4,30.19,SE,141,4.0,5.0,94,0.00,,,0.00,Wunderground v.1.15,2013-11-17 12:55:00,
2013-11-17 08:00:00,48.2,46.6,30.19,SE,132,3.0,4.0,94,0.00,,,0.00,Wunderground v.1.15,2013-11-17 13:00:00,
2013-11-17 08:05:00,48.3,46.7,30.19,South,173,3.0,4.0,94,0.00,,,0.00,Wunderground v.1.15,2013-11-17 13:05:00,
2013-11-17 08:10:00,48.3,46.7,30.18,SE,126,3.0,5.0,94,0.00,,,0.00,Wunderground v.1.15,2013-11-17 13:10:00,
2013-11-17 08:15:00,48.4,46.8,30.18,SE,140,3.0,5.0,94,0.00,,,0.00,Wunderground v.1.15,2013-11-17 13:15:00,
2013-11-17 08:20:00,48.6,47.0,30.18,SE,141,3.0,3.0,94,0.00,,,0.00,Wunderground v.1.15,2013-11-17 13:20:00,
2013-11-17 08:25:00,48.7,47.1,30.18,SSE,149,2.0,4.0,94,0.00,,,0.00,Wunderground v.1.15,2013-11-17 13:25:00,
2013-11-17 08:30:00,48.9,47.2,30.19,SSE,164,3.0,3.0,94,0.00,,,0.00,Wunderground v.1.15,2013-11-17 13:30:00,
2013-11-17 08:35:00,49.0,47.3,30.18,SE,142,3.0,4.0,94,0.00,,,0.00,Wunderground v.1.15,2013-11-17 13:35:00,
2013-11-17 08:40:00,49.2,47.5,30.19,SE,134,3.0,3.0,94,0.00,,,0.00,Wunderground v.1.15,2013-11-17 13:40:00,
2013-11-17 08:45:00,49.2,47.3,30.19,ESE,123,3.0,4.0,93,0.00,,,0.00,Wunderground v.1.15,2013-11-17 13:45:00,
2013-11-17 08:50:00,49.2,47.3,30.19,ESE,107,3.0,3.0,93,0.00,,,0.00,Wunderground v.1.15,2013-11-17 13:50:00,
2013-11-17 09:00:00,49.2,47.3,30.19,SE,143,2.0,4.0,93,0.00,,,0.00,Wunderground v.1.15,2013-11-17 14:00:00,
2013-11-17 09:05:00,49.2,47.3,30.19,SE,126,2.0,5.0,93,0.00,,,0.00,Wunderground v.1.15,2013-11-17 14:05:00,
2013-11-17 09:10:00,49.2,47.3,30.19,SSW,211,3.0,5.0,93,0.00,,,0.00,Wunderground v.1.15,2013-11-17 14:10:00,
2013-11-17 09:15:00,49.1,47.2,30.20,ESE,106,3.0,5.0,93,0.00,,,0.00,Wunderground v.1.15,2013-11-17 14:15:00,
2013-11-17 09:20:00,49.1,47.4,30.19,SSE,159,3.0,4.0,94,0.00,,,0.00,Wunderground v.1.15,2013-11-17 14:20:00,
2013-11-17 09:25:00,49.1,47.4,30.19,South,173,3.0,4.0,94,0.00,,,0.00,Wunderground v.1.15,2013-11-17 14:25:00,
2013-11-17 09:30:00,49.1,47.4,30.19,South,178,3.0,6.0,94,0.00,,,0.00,Wunderground v.1.15,2013-11-17 14:30:00,
2013-11-17 09:35:00,49.1,47.4,30.19,South,174,4.0,7.0,94,0.00,,,0.00,Wunderground v.1.15,2013-11-17 14:35:00,
2013-11-17 09:40:00,49.0,47.3,30.19,South,180,5.0,5.0,94,0.00,,,0.00,Wunderground v.1.15,2013-11-17 14:40:00,
2013-11-17 09:45:00,49.0,47.3,30.19,SE,133,6.0,6.0,94,0.00,,,0.00,Wunderground v.1.15,2013-11-17 14:45:00,
2013-11-17 09:50:00,49.1,47.4,30.19,South,175,6.0,6.0,94,0.00,,,0.00,Wunderground v.1.15,2013-11-17 14:50:00,
2013-11-17 09:55:00,49.1,47.4,30.19,South,186,5.0,11.0,94,0.00,,,0.00,Wunderground v.1.15,2013-11-17 14:55:00,
2013-11-17 10:00:00,49.3,47.9,30.19,SSW,198,4.0,7.0,95,0.00,,,0.00,Wunderground v.1.15,2013-11-17 15:00:00,
2013-11-17 10:05:00,49.3,47.9,30.19,SSE,165,5.0,9.0,95,0.00,,,0.00,Wunderground v.1.15,2013-11-17 15:05:00,
2013-11-17 10:10:00,49.3,47.9,30.19,SE,129,5.0,5.0,95,0.00,,,0.00,Wunderground v.1.15,2013-11-17 15:10:00,
2013-11-17 10:15:00,49.4,48.0,30.18,South,173,4.0,8.0,95,0.00,,,0.00,Wunderground v.1.15,2013-11-17 15:15:00,
2013-11-17 10:20:00,49.5,48.1,30.18,SSE,165,5.0,5.0,95,0.00,,,0.00,Wunderground v.1.15,2013-11-17 15:20:00,
2013-11-17 10:25:00,49.7,48.3,30.18,South,170,5.0,9.0,95,0.00,,,0.00,Wunderground v.1.15,2013-11-17 15:25:00,
2013-11-17 10:30:00,49.9,48.5,30.17,ESE,107,5.0,5.0,95,0.00,,,0.00,Wunderground v.1.15,2013-11-17 15:30:00,
2013-11-17 10:35:00,50.1,48.7,30.17,South,174,4.0,5.0,95,0.00,,,0.00,Wunderground v.1.15,2013-11-17 15:35:00,
2013-11-17 10:40:00,50.2,48.8,30.17,SE,134,4.0,10.0,95,0.00,,,0.00,Wunderground v.1.15,2013-11-17 15:40:00,
2013-11-17 10:45:00,50.4,49.0,30.16,SSE,150,5.0,10.0,95,0.00,,,0.00,Wunderground v.1.15,2013-11-17 15:45:00,
2013-11-17 10:50:00,50.6,49.2,30.16,SE,138,4.0,5.0,95,0.00,,,0.00,Wunderground v.1.15,2013-11-17 15:50:00,
2013-11-17 10:55:00,50.6,48.9,30.16,SE,138,3.0,5.0,94,0.00,,,0.00,Wunderground v.1.15,2013-11-17 15:55:00,
2013-11-17 11:00:00,50.7,49.0,30.16,SE,146,4.0,5.0,94,0.00,,,0.00,Wunderground v.1.15,2013-11-17 16:00:00,
2013-11-17 11:05:00,50.8,49.1,30.16,SE,134,5.0,5.0,94,0.00,,,0.00,Wunderground v.1.15,2013-11-17 16:05:00,
2013-11-17 11:10:00,51.0,49.3,30.15,SSE,165,4.0,4.0,94,0.00,,,0.00,Wunderground v.1.15,2013-11-17 16:10:00,
2013-11-17 11:15:00,51.0,49.3,30.15,SE,142,4.0,4.0,94,0.00,,,0.00,Wunderground v.1.15,2013-11-17 16:15:00,
2013-11-17 11:20:00,51.0,49.3,30.15,SE,146,5.0,6.0,94,0.00,,,0.00,Wunderground v.1.15,2013-11-17 16:20:00,
2013-11-17 11:25:00,51.0,49.3,30.15,South,186,5.0,6.0,94,0.00,,,0.00,Wunderground v.1.15,2013-11-17 16:25:00,
2013-11-17 11:30:00,51.0,49.3,30.14,SSE,152,5.0,7.0,94,0.00,,,0.00,Wunderground v.1.15,2013-11-17 16:30:00,
2013-11-17 11:35:00,51.2,49.5,30.14,SE,138,5.0,7.0,94,0.00,,,0.00,Wunderground v.1.15,2013-11-17 16:35:00,
2013-11-17 11:40:00,51.4,49.7,30.14,South,177,6.0,6.0,94,0.00,,,0.00,Wunderground v.1.15,2013-11-17 16:40:00,
2013-11-17 11:45:00,51.5,49.8,30.14,South,179,6.0,8.0,94,0.00,,,0.00,Wunderground v.1.15,2013-11-17 16:45:00,
2013-11-17 11:50:00,51.7,50.0,30.13,SE,144,6.0,6.0,94,0.00,,,0.00,Wunderground v.1.15,2013-11-17 16:50:00,
2013-11-17 11:55:00,51.9,49.9,30.13,South,181,6.0,7.0,93,0.00,,,0.00,Wunderground v.1.15,2013-11-17 16:55:00,
2013-11-17 12:00:00,52.0,50.0,30.13,SE,126,5.0,5.0,93,0.00,,,0.00,Wunderground v.1.15,2013-11-17 17:00:00,
2013-11-17 12:05:00,52.2,50.2,30.12,South,180,4.0,5.0,93,0.00,,,0.00,Wunderground v.1.15,2013-11-17 17:05:00,
2013-11-17 12:10:00,52.4,50.4,30.12,SSE,158,4.0,4.0,93,0.00,,,0.00,Wunderground v.1.15,2013-11-17 17:10:00,
2013-11-17 12:15:00,52.4,50.1,30.12,SSE,149,4.0,4.0,92,0.00,,,0.00,Wunderground v.1.15,2013-11-17 17:15:00,
2013-11-17 12:20:00,52.3,50.0,30.12,ESE,117,4.0,4.0,92,0.00,,,0.00,Wunderground v.1.15,2013-11-17 17:20:00,
2013-11-17 12:25:00,52.3,50.0,30.12,ESE,123,4.0,4.0,92,0.00,,,0.00,Wunderground v.1.15,2013-11-17 17:25:00,
2013-11-17 12:30:00,52.3,50.0,30.11,SE,133,4.0,4.0,92,0.00,,,0.00,Wunderground v.1.15,2013-11-17 17:30:00,
2013-11-17 12:35:00,52.2,49.9,30.11,SE,132,4.0,4.0,92,0.00,,,0.00,Wunderground v.1.15,2013-11-17 17:35:00,
2013-11-17 12:40:00,52.2,50.2,30.11,South,180,4.0,7.0,93,0.00,,,0.00,Wunderground v.1.15,2013-11-17 17:40:00,
2013-11-17 12:45:00,52.2,50.2,30.11,South,182,4.0,7.0,93,0.00,,,0.00,Wunderground v.1.15,2013-11-17 17:45:00,
2013-11-17 12:50:00,52.2,50.2,30.10,ESE,103,3.0,3.0,93,0.00,,,0.00,Wunderground v.1.15,2013-11-17 17:50:00,
2013-11-17 12:55:00,52.3,50.3,30.10,SSE,167,3.0,4.0,93,0.00,,,0.00,Wunderground v.1.15,2013-11-17 17:55:00,
2013-11-17 13:00:00,52.3,50.6,30.09,SSE,168,4.0,4.0,94,0.00,,,0.00,Wunderground v.1.15,2013-11-17 18:00:00,
2013-11-17 13:05:00,52.4,50.7,30.09,SE,138,4.0,5.0,94,0.00,,,0.00,Wunderground v.1.15,2013-11-17 18:05:00,
2013-11-17 13:10:00,52.4,50.4,30.09,SE,142,3.0,3.0,93,0.00,,,0.00,Wunderground v.1.15,2013-11-17 18:10:00,
2013-11-17 13:20:00,52.5,50.5,30.08,SE,126,2.0,4.0,93,0.00,,,0.00,Wunderground v.1.15,2013-11-17 18:20:00,
2013-11-17 13:25:00,52.5,50.5,30.07,East,94,2.0,4.0,93,0.00,,,0.00,Wunderground v.1.15,2013-11-17 18:25:00,
2013-11-17 13:30:00,52.5,50.5,30.07,SSE,155,2.0,2.0,93,0.00,,,0.00,Wunderground v.1.15,2013-11-17 18:30:00,
2013-11-17 13:35:00,52.5,50.5,30.08,SSE,147,2.0,4.0,93,0.00,,,0.00,Wunderground v.1.15,2013-11-17 18:35:00,
2013-11-17 13:40:00,52.5,50.5,30.07,SSE,155,2.0,2.0,93,0.00,,,0.00,Wunderground v.1.15,2013-11-17 18:40:00,
2013-11-17 13:45:00,52.4,50.4,30.07,East,97,1.0,4.0,93,0.00,,,0.00,Wunderground v.1.15,2013-11-17 18:45:00,
2013-11-17 13:50:00,52.3,50.3,30.07,SE,130,0.0,4.0,93,0.00,,,0.00,Wunderground v.1.15,2013-11-17 18:50:00,
2013-11-17 13:55:00,52.3,50.6,30.07,ESE,115,1.0,4.0,94,0.00,,,0.00,Wunderground v.1.15,2013-11-17 18:55:00,
2013-11-17 14:00:00,52.3,50.6,30.07,East,100,1.0,1.0,94,0.00,,,0.00,Wunderground v.1.15,2013-11-17 19:00:00,
2013-11-17 14:05:00,52.3,50.6,30.07,SSE,152,1.0,4.0,94,0.00,,,0.00,Wunderground v.1.15,2013-11-17 19:05:00,
2013-11-17 14:10:00,52.3,50.6,30.06,SSE,161,1.0,1.0,94,0.00,,,0.00,Wunderground v.1.15,2013-11-17 19:10:00,
2013-11-17 14:15:00,52.4,50.7,30.06,SE,146,0.0,4.0,94,0.00,,,0.00,Wunderground v.1.15,2013-11-17 19:15:00,
2013-11-17 14:20:00,52.5,50.8,30.07,South,186,1.0,4.0,94,0.00,,,0.00,Wunderground v.1.15,2013-11-17 19:20:00,
2013-11-17 14:25:00,52.5,51.1,30.07,SSE,148,1.0,4.0,95,0.00,,,0.00,Wunderground v.1.15,2013-11-17 19:25:00,
2013-11-17 14:30:00,52.6,51.2,30.07,ESE,107,2.0,2.0,95,0.00,,,0.00,Wunderground v.1.15,2013-11-17 19:30:00,
2013-11-17 14:35:00,52.6,51.2,30.07,SE,130,1.0,4.0,95,0.00,,,0.00,Wunderground v.1.15,2013-11-17 19:35:00,
2013-11-17 14:40:00,52.6,51.2,30.07,SSE,157,1.0,1.0,95,0.00,,,0.00,Wunderground v.1.15,2013-11-17 19:40:00,
2013-11-17 14:45:00,52.6,51.2,30.06,South,169,1.0,4.0,95,0.00,,,0.00,Wunderground v.1.15,2013-11-17 19:45:00,
2013-11-17 14:50:00,52.7,51.3,30.06,SSE,159,1.0,1.0,95,0.00,,,0.00,Wunderground v.1.15,2013-11-17 19:50:00,
2013-11-17 14:55:00,52.8,51.4,30.06,East,95,1.0,4.0,95,0.00,,,0.00,Wunderground v.1.15,2013-11-17 19:55:00,
2013-11-17 15:00:00,52.8,51.4,30.06,East,94,1.0,1.0,95,0.00,,,0.00,Wunderground v.1.15,2013-11-17 20:00:00,
2013-11-17 15:05:00,52.9,51.5,30.05,SSE,165,0.0,4.0,95,0.00,,,0.00,Wunderground v.1.15,2013-11-17 20:05:00,
2013-11-17 15:10:00,52.9,51.5,30.05,SSE,153,1.0,1.0,95,0.00,,,0.00,Wunderground v.1.15,2013-11-17 20:10:00,
2013-11-17 15:15:00,52.9,51.5,30.04,South,171,0.0,2.0,95,0.00,,,0.00,Wunderground v.1.15,2013-11-17 20:15:00,
2013-11-17 15:20:00,52.9,51.5,30.04,SSE,148,1.0,4.0,95,0.00,,,0.00,Wunderground v.1.15,2013-11-17 20:20:00,
2013-11-17 15:25:00,52.9,51.5,30.03,SE,133,1.0,4.0,95,0.00,,,0.00,Wunderground v.1.15,2013-11-17 20:25:00,
2013-11-17 15:30:00,52.9,51.5,30.03,SE,126,1.0,4.0,95,0.00,,,0.00,Wunderground v.1.15,2013-11-17 20:30:00,
2013-11-17 15:35:00,53.0,51.6,30.03,SSE,159,1.0,4.0,95,0.00,,,0.00,Wunderground v.1.15,2013-11-17 20:35:00,
2013-11-17 15:40:00,53.2,51.8,30.03,SSE,159,2.0,2.0,95,0.00,,,0.00,Wunderground v.1.15,2013-11-17 20:40:00,
2013-11-17 15:45:00,53.4,52.3,30.02,South,170,1.0,4.0,96,0.00,,,0.00,Wunderground v.1.15,2013-11-17 20:45:00,
2013-11-17 15:50:00,53.4,52.3,30.02,ESE,122,1.0,4.0,96,0.00,,,0.00,Wunderground v.1.15,2013-11-17 20:50:00,
2013-11-17 15:55:00,53.4,52.3,30.02,ESE,118,0.0,4.0,96,0.00,,,0.00,Wunderground v.1.15,2013-11-17 20:55:00,
2013-11-17 16:00:00,53.5,52.4,30.02,East,101,0.0,4.0,96,0.00,,,0.00,Wunderground v.1.15,2013-11-17 21:00:00,
2013-11-17 16:05:00,53.6,52.5,30.01,East,94,1.0,4.0,96,0.00,,,0.00,Wunderground v.1.15,2013-11-17 21:05:00,
2013-11-17 16:10:00,53.7,52.6,30.01,East,82,1.0,1.0,96,0.00,,,0.00,Wunderground v.1.15,2013-11-17 21:10:00,
2013-11-17 16:15:00,53.5,52.4,30.01,East,92,0.0,4.0,96,0.00,,,0.00,Wunderground v.1.15,2013-11-17 21:15:00,
2013-11-17 16:20:00,53.5,52.4,30.01,ESE,110,0.0,4.0,96,0.00,,,0.00,Wunderground v.1.15,2013-11-17 21:20:00,
2013-11-17 16:25:00,53.5,52.4,30.01,ESE,102,0.0,4.0,96,0.00,,,0.00,Wunderground v.1.15,2013-11-17 21:25:00,
2013-11-17 16:30:00,53.7,52.6,30.00,SSE,159,1.0,4.0,96,0.00,,,0.00,Wunderground v.1.15,2013-11-17 21:30:00,
2013-11-17 16:35:00,53.9,52.8,30.00,SE,143,1.0,4.0,96,0.00,,,0.00,Wunderground v.1.15,2013-11-17 21:35:00,
2013-11-17 16:40:00,54.2,53.1,30.00,SE,137,2.0,4.0,96,0.00,,,0.00,Wunderground v.1.15,2013-11-17 21:40:00,
2013-11-17 16:45:00,54.2,53.1,30.00,South,182,3.0,4.0,96,0.00,,,0.00,Wunderground v.1.15,2013-11-17 21:45:00,
2013-11-17 16:50:00,54.3,53.2,29.99,South,178,2.0,2.0,96,0.00,,,0.00,Wunderground v.1.15,2013-11-17 21:50:00,
2013-11-17 16:55:00,54.3,53.2,29.99,SE,140,2.0,4.0,96,0.00,,,0.00,Wunderground v.1.15,2013-11-17 21:55:00,
2013-11-17 17:00:00,54.4,53.3,29.99,ESE,120,3.0,4.0,96,0.00,,,0.00,Wunderground v.1.15,2013-11-17 22:00:00,
2013-11-17 17:05:00,54.5,53.4,29.98,SSE,157,3.0,4.0,96,0.00,,,0.00,Wunderground v.1.15,2013-11-17 22:05:00,
2013-11-17 17:10:00,54.4,53.3,29.98,SSE,151,3.0,3.0,96,0.00,,,0.00,Wunderground v.1.15,2013-11-17 22:10:00,
2013-11-17 17:15:00,54.4,53.3,29.98,SE,130,2.0,4.0,96,0.00,,,0.00,Wunderground v.1.15,2013-11-17 22:15:00,
2013-11-17 17:20:00,54.4,53.3,29.97,SSE,168,3.0,3.0,96,0.00,,,0.00,Wunderground v.1.15,2013-11-17 22:20:00,
2013-11-17 17:25:00,54.3,53.2,29.97,SE,145,2.0,5.0,96,0.00,,,0.00,Wunderground v.1.15,2013-11-17 22:25:00,
2013-11-17 17:30:00,54.3,53.2,29.97,SSE,147,2.0,2.0,96,0.00,,,0.00,Wunderground v.1.15,2013-11-17 22:30:00,
2013-11-17 17:35:00,54.3,53.2,29.98,ESE,123,2.0,4.0,96,0.00,,,0.00,Wunderground v.1.15,2013-11-17 22:35:00,
2013-11-17 17:40:00,54.3,53.2,29.98,ESE,114,1.0,1.0,96,0.00,,,0.00,Wunderground v.1.15,2013-11-17 22:40:00,
2013-11-17 17:45:00,54.4,53.3,29.98,ESE,122,1.0,4.0,96,0.00,,,0.00,Wunderground v.1.15,2013-11-17 22:45:00,
2013-11-17 17:50:00,54.4,53.3,29.98,SSE,156,1.0,1.0,96,0.00,,,0.00,Wunderground v.1.15,2013-11-17 22:50:00,
2013-11-17 17:55:00,54.3,53.2,29.97,SSE,148,1.0,4.0,96,0.00,,,0.00,Wunderground v.1.15,2013-11-17 22:55:00,
2013-11-17 18:00:00,54.4,53.3,29.96,SSW,199,2.0,4.0,96,0.00,,,0.00,Wunderground v.1.15,2013-11-17 23:00:00,
2013-11-17 18:05:00,54.5,53.4,29.96,East,94,3.0,10.0,96,0.00,,,0.00,Wunderground v.1.15,2013-11-17 23:05:00,
2013-11-17 18:10:00,54.6,53.5,29.96,SE,140,3.0,3.0,96,0.00,,,0.00,Wunderground v.1.15,2013-11-17 23:10:00,
2013-11-17 18:15:00,54.8,53.7,29.96,South,173,3.0,4.0,96,0.00,,,0.00,Wunderground v.1.15,2013-11-17 23:15:00,
2013-11-17 18:20:00,54.8,53.7,29.96,SSE,161,3.0,3.0,96,0.00,,,0.00,Wunderground v.1.15,2013-11-17 23:20:00,
2013-11-17 18:25:00,54.8,53.7,29.95,South,176,3.0,4.0,96,0.00,,,0.00,Wunderground v.1.15,2013-11-17 23:25:00,
2013-11-17 18:30:00,54.8,53.7,29.95,East,99,2.0,2.0,96,0.00,,,0.00,Wunderground v.1.15,2013-11-17 23:30:00,
2013-11-17 18:35:00,54.7,53.6,29.95,East,94,2.0,4.0,96,0.00,,,0.00,Wunderground v.1.15,2013-11-17 23:35:00,
2013-11-17 18:40:00,54.7,53.6,29.95,SSE,161,2.0,4.0,96,0.00,,,0.00,Wunderground v.1.15,2013-11-17 23:40:00,
2013-11-17 18:45:00,54.7,53.6,29.94,South,171,2.0,4.0,96,0.00,,,0.00,Wunderground v.1.15,2013-11-17 23:45:00,
2013-11-17 18:50:00,54.9,53.8,29.93,SE,143,3.0,3.0,96,0.00,,,0.00,Wunderground v.1.15,2013-11-17 23:50:00,
2013-11-17 18:55:00,54.9,53.8,29.92,SSW,193,2.0,4.0,96,0.00,,,0.00,Wunderground v.1.15,2013-11-17 23:55:00,
2013-11-17 19:00:00,55.0,53.9,29.93,South,178,2.0,7.0,96,0.00,,,0.00,Wunderground v.1.15,2013-11-18 00:00:00,
2013-11-17 19:05:00,55.2,54.1,29.93,South,180,2.0,7.0,96,0.00,,,0.00,Wunderground v.1.15,2013-11-18 00:05:00,
2013-11-17 19:10:00,55.3,54.2,29.93,SSE,159,3.0,3.0,96,0.00,,,0.00,Wunderground v.1.15,2013-11-18 00:10:00,
2013-11-17 19:15:00,55.5,54.7,29.93,SSE,153,3.0,4.0,97,0.00,,,0.00,Wunderground v.1.15,2013-11-18 00:15:00,
2013-11-17 19:20:00,55.6,54.8,29.92,South,184,3.0,7.0,97,0.00,,,0.00,Wunderground v.1.15,2013-11-18 00:20:00,
2013-11-17 19:25:00,55.7,54.9,29.91,ESE,123,3.0,7.0,97,0.00,,,0.00,Wunderground v.1.15,2013-11-18 00:25:00,
2013-11-17 19:30:00,55.8,55.0,29.91,SSE,165,6.0,6.0,97,0.00,,,0.00,Wunderground v.1.15,2013-11-18 00:30:00,
2013-11-17 19:35:00,55.8,54.7,29.90,ESE,108,5.0,6.0,96,0.00,,,0.00,Wunderground v.1.15,2013-11-18 00:35:00,
2013-11-17 19:40:00,55.7,54.6,29.89,SE,132,5.0,5.0,96,0.00,,,0.00,Wunderground v.1.15,2013-11-18 00:40:00,
2013-11-17 19:45:00,55.6,54.5,29.88,SE,130,4.0,5.0,96,0.00,,,0.00,Wunderground v.1.15,2013-11-18 00:45:00,
2013-11-17 19:50:00,55.5,54.4,29.88,South,179,4.0,7.0,96,0.00,,,0.00,Wunderground v.1.15,2013-11-18 00:50:00,
2013-11-17 19:55:00,55.5,54.4,29.88,SSE,159,4.0,7.0,96,0.00,,,0.00,Wunderground v.1.15,2013-11-18 00:55:00,
2013-11-17 20:00:00,55.6,54.5,29.88,South,170,4.0,5.0,96,0.00,,,0.00,Wunderground v.1.15,2013-11-18 01:00:00,
2013-11-17 20:05:00,55.7,54.6,29.88,South,188,5.0,8.0,96,0.00,,,0.00,Wunderground v.1.15,2013-11-18 01:05:00,
2013-11-17 20:10:00,55.7,54.6,29.87,South,181,6.0,12.0,96,0.00,,,0.00,Wunderground v.1.15,2013-11-18 01:10:00,
2013-11-17 20:15:00,55.7,54.6,29.86,SSE,165,6.0,12.0,96,0.00,,,0.00,Wunderground v.1.15,2013-11-18 01:15:00,
2013-11-17 20:20:00,55.7,54.6,29.86,SSE,163,6.0,6.0,96,0.00,,,0.00,Wunderground v.1.15,2013-11-18 01:20:00,
2013-11-17 20:25:00,55.8,54.7,29.86,SSE,147,6.0,6.0,96,0.00,,,0.00,Wunderground v.1.15,2013-11-18 01:25:00,
2013-11-17 20:30:00,55.8,54.7,29.86,SSE,159,6.0,6.0,96,0.00,,,0.00,Wunderground v.1.15,2013-11-18 01:30:00,
2013-11-17 20:35:00,55.9,54.8,29.86,South,184,7.0,9.0,96,0.00,,,0.00,Wunderground v.1.15,2013-11-18 01:35:00,
2013-11-17 20:40:00,56.0,54.9,29.86,South,176,7.0,7.0,96,0.00,,,0.00,Wunderground v.1.15,2013-11-18 01:40:00,
2013-11-17 20:45:00,56.0,54.9,29.86,SSE,147,7.0,7.0,96,0.00,,,0.00,Wunderground v.1.15,2013-11-18 01:45:00,
2013-11-17 20:50:00,55.9,54.8,29.85,South,180,6.0,10.0,96,0.00,,,0.00,Wunderground v.1.15,2013-11-18 01:50:00,
2013-11-17 20:55:00,55.9,54.8,29.84,South,174,7.0,10.0,96,0.00,,,0.00,Wunderground v.1.15,2013-11-18 01:55:00,
2013-11-17 21:05:00,56.0,54.9,29.83,South,184,7.0,7.0,96,0.00,,,0.00,Wunderground v.1.15,2013-11-18 02:05:00,
2013-11-17 21:10:00,56.0,54.9,29.83,SSE,165,8.0,8.0,96,0.00,,,0.00,Wunderground v.1.15,2013-11-18 02:10:00,
2013-11-17 21:15:00,56.1,55.0,29.83,SSE,159,8.0,8.0,96,0.00,,,0.00,Wunderground v.1.15,2013-11-18 02:15:00,
2013-11-17 21:20:00,56.1,55.0,29.83,South,172,7.0,7.0,96,0.00,,,0.00,Wunderground v.1.15,2013-11-18 02:20:00,
2013-11-17 21:25:00,56.2,55.1,29.83,SSE,165,7.0,7.0,96,0.00,,,0.00,Wunderground v.1.15,2013-11-18 02:25:00,
2013-11-17 21:30:00,56.1,55.0,29.82,SSE,166,9.0,9.0,96,0.00,,,0.00,Wunderground v.1.15,2013-11-18 02:30:00,
2013-11-17 21:40:00,56.0,54.9,29.81,SSE,167,8.0,8.0,96,0.00,,,0.00,Wunderground v.1.15,2013-11-18 02:40:00,
2013-11-17 21:45:00,56.1,55.0,29.81,South,187,8.0,8.0,96,0.00,,,0.00,Wunderground v.1.15,2013-11-18 02:45:00,
2013-11-17 21:50:00,56.2,55.1,29.81,SSW,194,7.0,7.0,96,0.00,,,0.00,Wunderground v.1.15,2013-11-18 02:50:00,
2013-11-17 21:55:00,56.2,55.1,29.82,South,175,7.0,9.0,96,0.00,,,0.00,Wunderground v.1.15,2013-11-18 02:55:00,
2013-11-17 22:00:00,56.2,55.1,29.81,East,100,8.0,8.0,96,0.00,,,0.01,Wunderground v.1.15,2013-11-18 03:00:00,
2013-11-17 22:05:00,56.2,55.1,29.81,South,182,8.0,12.0,96,0.00,,,0.01,Wunderground v.1.15,2013-11-18 03:05:00,
2013-11-17 22:15:00,56.3,55.2,29.79,SSE,153,8.0,10.0,96,0.00,,,0.01,Wunderground v.1.15,2013-11-18 03:15:00,
2013-11-17 22:20:00,56.3,55.2,29.78,South,177,9.0,11.0,96,0.00,,,0.01,Wunderground v.1.15,2013-11-18 03:20:00,
2013-11-17 22:25:00,56.2,54.8,29.78,South,179,8.0,11.0,95,0.00,,,0.01,Wunderground v.1.15,2013-11-18 03:25:00,
2013-11-17 22:30:00,56.2,55.1,29.77,South,175,8.0,11.0,96,0.00,,,0.01,Wunderground v.1.15,2013-11-18 03:30:00,
2013-11-17 22:35:00,56.2,55.1,29.76,South,180,9.0,13.0,96,0.00,,,0.01,Wunderground v.1.15,2013-11-18 03:35:00,
2013-11-17 22:40:00,56.2,55.1,29.76,South,172,9.0,9.0,96,0.00,,,0.01,Wunderground v.1.15,2013-11-18 03:40:00,
2013-11-17 22:45:00,56.2,54.8,29.76,South,176,9.0,9.0,95,0.00,,,0.01,Wunderground v.1.15,2013-11-18 03:45:00,
2013-11-17 22:50:00,56.3,54.9,29.75,SSE,148,9.0,9.0,95,0.00,,,0.01,Wunderground v.1.15,2013-11-18 03:50:00,
2013-11-17 22:55:00,56.3,54.9,29.74,South,171,9.0,9.0,95,0.00,,,0.01,Wunderground v.1.15,2013-11-18 03:55:00,
2013-11-17 23:00:00,56.4,55.0,29.75,SSE,168,9.0,13.0,95,0.00,,,0.01,Wunderground v.1.15,2013-11-18 04:00:00,
2013-11-17 23:05:00,56.4,55.0,29.75,SSW,192,9.0,13.0,95,0.00,,,0.01,Wunderground v.1.15,2013-11-18 04:05:00,
2013-11-17 23:10:00,56.4,55.0,29.75,SSE,157,10.0,10.0,95,0.00,,,0.01,Wunderground v.1.15,2013-11-18 04:10:00,
2013-11-17 23:15:00,56.4,55.0,29.74,South,174,9.0,10.0,95,0.00,,,0.01,Wunderground v.1.15,2013-11-18 04:15:00,
2013-11-17 23:20:00,56.3,54.9,29.75,South,172,8.0,8.0,95,0.00,,,0.01,Wunderground v.1.15,2013-11-18 04:20:00,
2013-11-17 23:25:00,56.3,54.9,29.73,ESE,110,8.0,8.0,95,0.00,,,0.01,Wunderground v.1.15,2013-11-18 04:25:00,
2013-11-17 23:30:00,56.3,54.9,29.73,SSE,150,8.0,8.0,95,0.00,,,0.01,Wunderground v.1.15,2013-11-18 04:30:00,
2013-11-17 23:35:00,56.3,55.2,29.73,ESE,121,8.0,8.0,96,0.00,,,0.01,Wunderground v.1.15,2013-11-18 04:35:00,
2013-11-17 23:40:00,56.4,55.3,29.73,South,188,9.0,9.0,96,0.00,,,0.01,Wunderground v.1.15,2013-11-18 04:40:00,
2013-11-17 23:45:00,56.4,55.3,29.72,SSE,168,11.0,11.0,96,0.00,,,0.01,Wunderground v.1.15,2013-11-18 04:45:00,
2013-11-17 23:50:00,56.4,55.0,29.71,South,181,10.0,10.0,95,0.00,,,0.01,Wunderground v.1.15,2013-11-18 04:50:00,